Terminal Aerodrome Forecast
Issued by NWS

Home | Current Version | Previous Version | Text Only | Print | Product List | Glossary On
Versions: 1 2 3 4 5 6 7 8 9 10 11 12 13 14
000
FTUS46 KSEW 301700
TAFOLM
TAF
KOLM 301735Z 3018/3118 00000KT 5SM BR BKN050 OVC090
      TEMPO 3018/3022 3SM -RA BR
     FM302300 18004KT 4SM -RA BR SCT008 OVC015
     FM311400 18008KT P6SM -SHRA BKN015 BKN035=

USA.gov is the U.S. government's official web portal to all federal, state and local government web resources and services.